Search for airport 
image banner adimage banner adimage banner ad
image banner ad

CYD2 - Graham Lake (Yellow Dog Lodge)

Located in , Canada

ICAO - , IATA -

Data provided by Airmate  

General information

Coordinates: N62°53'28" W113°52'4"
Elevation is 725 feet MSL.
Magnetic variation is 15.9667° East
View others Airports in Northwest Territories

Operational data

Special qualification required
Current time UTC:
Current local time:
Weather at : CYZF - Yellowknife ( 56 km )
METAR: CYZF 221600Z 13017G22KT 15SM FEW220 03/M00 A2982 RMK CI1 SLP112
TAF: TAF CYZF 221138Z 2212/2312 14015G25KT P6SM SKC BECMG 2222/2224 14015KT RMK NXT FCST BY 221800Z
View NOTAMs / SUP AIP / TFR affecting this airport [VIEW]
Communications frequencies: [VIEW]

Runways:

RWY identifierQFULength (ft)Width (ft)SurfaceLDA (ft)
W00WATER

Airport contact information

Address: Canada

Satellite view of CYD2